Biscotasing, Canada
Current Conditions -  °F | °C
As of 11:00 AM on Thursday 29 Jan 2015 (Local Time) from CYLD Reporting Station
Light Snow Light Snow  
Wind Chill: 21°   Ceiling: 1100
Heat Index: 21°   Visibility: 15mi
Dew Point: 19°   Wind: 3mph
Humidity: 93%   Direction: 200°SSW
Pressure: 29.7"   Gusts: NA
Location:  47.3°N, 82.1°W
Report Text: CYLD 291600Z 20003KT 15SM -SN OVC011 M06/M07 A2970 RMK SC8SLP087
Loading
Personal Weather Stations






























Interactive Weather Map New forecast layout! Learn more

10-Day Weather Forecast

Advertisements
Track Severe Weather on mobile